Airfield :







YOU CAN JOIN US ON...

 
LOGIN :

Register | Disclaimer

   EN    FR    IT 

 









Legend :    VFR   Marginal VFR   IFR   Intensive IFR   Very Intensive IFR
Visi :
Ceiling :
>= 8 km
>= 3000ft
5 to 8 km
1000 to 3000 ft
1500m to 5 km
500 to 1000 ft
800 to 1500m
200 to 500 ft
< 800m
< 200 ft
Symbols :   Thunderstorms  Fog  Heavy snow  Heavy precipitations  Wind > 20 kt







- Airport Elevation : 1009 ft
- IATA code : ORH


KORH - Worcester Regional

CURRENT METAR :
  • 201854Z 22007KT 10SM FEW033 31/24 A2982 RMK AO2 SLP090 T03110244

EXPIRED METARs :
  • 201754Z 26010KT 10SM FEW034 31/24 A2984 RMK AO2 SLP098 T03060239 10311 20256 58007
  • 201654Z 27007KT 10SM FEW030 31/24 A2986 RMK AO2 SLP103 T03060244

TAF KORH
Valid from the 20 at 18:00 until the 21 at 18:00 UTC


201737Z 2018/2118 27007KT P6SM FEW030
FM210000 25007KT P6SM SCT060
FM211100 26008KT P6SM FEW250
FM211600 27011G18KT P6SM FEW100
KZBW FIR / North America



MET'MAP, your aeronautical weather chart ! - Copyright ORBIFLY December 2007 - Disclaimer

ORBIFLY MET'MAP TEAM :

Programming & Development : Alexandra Zaïnal
Concept & Development : Baudouin d'Aumeries
Co-Development & Prog : Marc-Olivier Méhu
Technical & hardware support : Manuel Goepfert

Contact : metmap@orbifly.com




SOURCES & CREDITS :

   NOAA